createdAt,value
2024-03-04T00:00:33.295Z,18.27
2024-03-04T00:03:01.052Z,21.80
2024-03-04T00:05:30.179Z,17.73
2024-03-04T00:07:58.320Z,18.70
2024-03-04T00:10:25.941Z,19.97
2024-03-04T00:12:53.663Z,18.47
2024-03-04T00:15:21.302Z,20.10
2024-03-04T00:17:50.157Z,21.00
2024-03-04T00:20:19.430Z,21.17
2024-03-04T00:22:48.684Z,21.77
2024-03-04T00:25:17.571Z,21.80
2024-03-04T00:27:45.338Z,22.37
2024-03-04T00:30:14.066Z,24.87
2024-03-04T00:32:42.043Z,21.57
2024-03-04T00:35:11.948Z,21.70
2024-03-04T00:37:39.645Z,21.37
2024-03-04T00:40:10.287Z,24.37
2024-03-04T00:42:39.217Z,22.13
2024-03-04T00:45:07.921Z,23.57
2024-03-04T00:47:35.752Z,27.67
2024-03-04T00:50:03.825Z,27.53
2024-03-04T00:52:31.689Z,29.77
2024-03-04T00:54:59.413Z,33.80
2024-03-04T00:57:28.367Z,37.57
2024-03-04T00:59:56.824Z,47.07
2024-03-04T01:02:24.398Z,50.07
2024-03-04T01:04:51.954Z,55.07
2024-03-04T01:07:19.581Z,50.90
2024-03-04T01:09:47.204Z,57.93
2024-03-04T01:12:15.762Z,54.97
2024-03-04T01:14:44.731Z,53.53
2024-03-04T01:17:17.716Z,57.27
2024-03-04T01:19:47.981Z,54.90
2024-03-04T01:22:17.434Z,56.33
2024-03-04T01:24:45.771Z,64.50
2024-03-04T01:27:13.732Z,60.30
2024-03-04T01:29:42.605Z,65.30
2024-03-04T01:32:11.862Z,64.53
2024-03-04T01:34:40.365Z,66.80
2024-03-04T01:37:08.543Z,67.73
2024-03-04T01:39:36.433Z,65.73
2024-03-04T01:42:04.451Z,70.47
2024-03-04T01:44:33.544Z,65.57
2024-03-04T01:47:03.269Z,73.97
2024-03-04T01:49:32.866Z,73.57
2024-03-04T01:52:01.244Z,72.20
2024-03-04T01:54:29.067Z,75.97
2024-03-04T01:56:56.990Z,74.17
2024-03-04T01:59:24.682Z,73.90
2024-03-04T02:01:52.832Z,79.90
2024-03-04T02:04:20.823Z,80.40
2024-03-04T02:06:50.404Z,78.23
2024-03-04T02:09:18.734Z,83.80
2024-03-04T02:11:46.362Z,80.63
2024-03-04T02:14:14.234Z,82.43
2024-03-04T02:16:41.883Z,84.47
2024-03-04T02:19:12.931Z,88.40
2024-03-04T02:21:42.097Z,82.00
2024-03-04T02:24:11.064Z,91.70
2024-03-04T02:26:39.452Z,91.97
2024-03-04T02:29:07.404Z,84.37
2024-03-04T02:31:35.088Z,83.50
2024-03-04T02:34:02.935Z,88.03
2024-03-04T02:36:30.558Z,83.87
2024-03-04T02:38:58.316Z,87.63
2024-03-04T02:41:27.795Z,98.00
2024-03-04T02:43:55.405Z,92.40
2024-03-04T02:46:23.107Z,103.20
2024-03-04T02:48:53.211Z,100.80
2024-03-04T02:51:21.901Z,103.10
2024-03-04T02:53:49.585Z,100.97
2024-03-04T02:56:17.133Z,106.60
2024-03-04T02:58:46.110Z,100.57
2024-03-04T03:01:14.037Z,103.87
2024-03-04T03:03:41.620Z,102.50
2024-03-04T03:06:09.166Z,96.43
2024-03-04T03:08:36.711Z,101.63
2024-03-04T03:11:05.067Z,97.00
2024-03-04T03:13:32.780Z,95.17
2024-03-04T03:16:03.699Z,105.53
2024-03-04T03:18:31.318Z,99.00
2024-03-04T03:20:58.962Z,86.77
2024-03-04T03:23:26.560Z,98.93
2024-03-04T03:25:54.188Z,82.53
2024-03-04T03:28:21.835Z,77.97
2024-03-04T03:30:49.500Z,86.87
2024-03-04T03:33:18.418Z,80.73
2024-03-04T03:35:46.261Z,84.40
2024-03-04T03:38:19.693Z,79.47
2024-03-04T03:40:47.383Z,76.40
2024-03-04T03:43:15.029Z,77.00
2024-03-04T03:45:43.601Z,79.23
2024-03-04T03:48:11.606Z,76.50
2024-03-04T03:50:40.571Z,74.20
2024-03-04T03:53:08.176Z,75.70
2024-03-04T03:55:35.795Z,73.47
2024-03-04T03:58:03.572Z,73.23
2024-03-04T04:00:33.495Z,68.57
2024-03-04T04:03:02.203Z,65.73
2024-03-04T04:05:29.851Z,61.13
2024-03-04T04:08:00.000Z,56.67
2024-03-04T04:10:27.749Z,55.57
2024-03-04T04:12:55.464Z,54.97
2024-03-04T04:15:24.661Z,67.20
2024-03-04T04:17:53.530Z,60.33
2024-03-04T04:20:21.704Z,59.47
2024-03-04T04:22:49.451Z,59.13
2024-03-04T04:25:18.842Z,63.60
2024-03-04T04:27:47.047Z,55.70
2024-03-04T04:30:15.058Z,54.70
2024-03-04T04:32:43.129Z,52.93
2024-03-04T04:35:10.965Z,46.80
2024-03-04T04:37:38.670Z,55.07
2024-03-04T04:40:07.530Z,48.40
2024-03-04T04:42:36.536Z,49.30
2024-03-04T04:45:04.819Z,49.37
2024-03-04T04:47:32.430Z,47.60
2024-03-04T04:50:00.184Z,57.77
2024-03-04T04:52:27.884Z,54.27
2024-03-04T04:54:55.447Z,51.50
2024-03-04T04:57:23.162Z,48.33
2024-03-04T04:59:52.127Z,53.47
2024-03-04T05:02:20.220Z,52.17
2024-03-04T05:04:54.634Z,47.90
2024-03-04T05:07:26.490Z,49.83
2024-03-04T05:09:54.491Z,49.53
2024-03-04T05:12:22.691Z,58.97
2024-03-04T05:14:50.346Z,49.93
2024-03-04T05:17:19.298Z,48.20
2024-03-04T05:19:47.063Z,43.30
2024-03-04T05:22:14.903Z,46.17
2024-03-04T05:24:42.533Z,47.73
2024-03-04T05:27:10.419Z,44.70
2024-03-04T05:29:38.022Z,45.63
2024-03-04T05:32:06.361Z,44.90
2024-03-04T05:34:36.049Z,43.60
2024-03-04T05:37:03.753Z,45.37
2024-03-04T05:39:32.846Z,39.97
2024-03-04T05:42:00.805Z,42.23
2024-03-04T05:44:28.420Z,41.13
2024-03-04T05:46:56.046Z,44.27
2024-03-04T05:49:24.624Z,39.37
2024-03-04T05:51:54.095Z,46.20
2024-03-04T05:54:21.652Z,38.07
2024-03-04T05:56:49.889Z,33.57
2024-03-04T05:59:17.663Z,36.47
2024-03-04T06:01:46.371Z,40.90
2024-03-04T06:04:14.043Z,35.90
2024-03-04T06:06:42.437Z,38.57
2024-03-04T06:09:11.413Z,40.20
2024-03-04T06:11:39.092Z,43.90
2024-03-04T06:14:06.726Z,43.00
2024-03-04T06:16:34.383Z,43.17
2024-03-04T06:19:02.026Z,43.50
2024-03-04T06:21:29.634Z,46.13
2024-03-04T06:23:57.265Z,44.03
2024-03-04T06:26:26.200Z,41.20
2024-03-04T06:28:53.765Z,47.13
2024-03-04T06:31:21.379Z,54.30
2024-03-04T06:33:53.566Z,45.90
2024-03-04T06:36:22.774Z,46.00
2024-03-04T06:38:51.221Z,44.57
2024-03-04T06:41:19.218Z,46.80
2024-03-04T06:43:48.238Z,46.73
2024-03-04T06:46:15.926Z,44.67
2024-03-04T06:48:42.571Z,41.67
2024-03-04T06:51:10.152Z,42.67
2024-03-04T06:53:38.599Z,46.13
2024-03-04T06:56:09.334Z,41.57
2024-03-04T06:58:37.061Z,44.70
2024-03-04T07:01:06.952Z,41.37
2024-03-04T07:03:34.602Z,43.00
2024-03-04T07:06:02.249Z,39.87
2024-03-04T07:08:33.316Z,44.63
2024-03-04T07:11:01.470Z,43.00
2024-03-04T07:13:29.658Z,38.50
2024-03-04T07:15:58.172Z,40.23
2024-03-04T07:18:32.369Z,46.70
2024-03-04T07:21:03.056Z,41.50
2024-03-04T07:23:30.975Z,47.83
2024-03-04T07:25:58.574Z,45.27
2024-03-04T07:28:26.194Z,49.10
2024-03-04T07:30:53.795Z,39.63
2024-03-04T07:33:21.436Z,46.33
2024-03-04T07:35:50.477Z,42.63
2024-03-04T07:38:18.156Z,44.20
2024-03-04T07:40:45.854Z,41.43
2024-03-04T07:43:13.561Z,40.70
2024-03-04T07:45:41.132Z,41.27
2024-03-04T07:48:09.288Z,38.30
2024-03-04T07:50:37.033Z,41.67
2024-03-04T07:53:06.128Z,38.27
2024-03-04T07:55:33.777Z,40.70
2024-03-04T07:58:01.364Z,40.20
2024-03-04T08:00:29.553Z,41.17
2024-03-04T08:02:57.575Z,38.97
2024-03-04T08:05:25.214Z,42.73
2024-03-04T08:07:52.771Z,41.77
2024-03-04T08:10:21.757Z,41.87
2024-03-04T08:12:49.365Z,42.70
2024-03-04T08:15:17.217Z,41.73
2024-03-04T08:17:54.236Z,43.57
2024-03-04T08:20:32.710Z,41.70
2024-03-04T08:23:02.387Z,41.30
2024-03-04T08:25:31.532Z,40.93
2024-03-04T08:27:59.441Z,41.83
2024-03-04T08:30:27.718Z,40.47
2024-03-04T08:32:55.468Z,38.33
2024-03-04T08:35:23.211Z,39.17
2024-03-04T08:37:50.849Z,37.23
2024-03-04T08:40:17.777Z,35.93
2024-03-04T08:42:46.770Z,36.77
2024-03-04T08:45:14.466Z,36.33
2024-03-04T08:47:42.237Z,36.23
2024-03-04T08:50:10.747Z,32.93
2024-03-04T08:52:38.353Z,34.00
2024-03-04T08:55:06.991Z,35.63
2024-03-04T08:57:35.092Z,35.97
2024-03-04T09:00:05.270Z,35.73
2024-03-04T09:02:32.863Z,35.77
2024-03-04T09:05:00.520Z,41.93
2024-03-04T09:07:28.494Z,41.27
2024-03-04T09:09:56.203Z,36.97
2024-03-04T09:12:26.222Z,44.03
2024-03-04T09:14:53.803Z,41.67
2024-03-04T09:17:22.982Z,39.87
2024-03-04T09:19:51.094Z,42.13
2024-03-04T09:22:18.967Z,42.23
2024-03-04T09:24:46.648Z,38.83
2024-03-04T09:27:15.185Z,38.63
2024-03-04T09:29:42.796Z,43.13
2024-03-04T09:32:10.382Z,39.73
2024-03-04T09:34:39.419Z,40.10
2024-03-04T09:37:07.159Z,39.07
2024-03-04T09:39:34.801Z,42.90
2024-03-04T09:42:02.415Z,40.60
2024-03-04T09:44:31.188Z,43.00
2024-03-04T09:46:58.871Z,40.53
2024-03-04T09:49:30.728Z,40.07
2024-03-04T09:52:01.249Z,38.23
2024-03-04T09:54:31.578Z,38.40
2024-03-04T09:56:59.270Z,38.77
2024-03-04T09:59:27.312Z,37.43
2024-03-04T10:01:58.005Z,38.73
2024-03-04T10:04:26.021Z,36.40
2024-03-04T10:06:53.752Z,37.40
2024-03-04T10:09:23.352Z,40.07
2024-03-04T10:11:51.168Z,34.90
2024-03-04T10:14:18.780Z,35.47
2024-03-04T10:16:47.233Z,40.53
2024-03-04T10:19:21.046Z,42.50
2024-03-04T10:21:48.993Z,41.77
2024-03-04T10:24:16.636Z,40.80
2024-03-04T10:26:46.406Z,42.00
2024-03-04T10:29:16.697Z,40.47
2024-03-04T10:31:52.162Z,41.13
2024-03-04T10:34:20.288Z,40.50
2024-03-04T10:36:49.491Z,44.03
2024-03-04T10:39:17.477Z,46.53
2024-03-04T10:41:49.074Z,40.50
2024-03-04T10:44:24.632Z,43.40
2024-03-04T10:46:55.273Z,42.53
2024-03-04T10:49:24.449Z,38.67
2024-03-04T10:52:03.774Z,33.57
2024-03-04T10:54:40.314Z,31.80
2024-03-04T10:57:20.080Z,34.47
2024-03-04T10:59:48.202Z,36.20
2024-03-04T11:02:22.211Z,37.20
2024-03-04T11:04:53.671Z,34.50
2024-03-04T11:07:24.644Z,35.53
2024-03-04T11:09:53.834Z,33.57
2024-03-04T11:12:24.161Z,30.73
2024-03-04T11:14:57.196Z,31.23
2024-03-04T11:17:30.454Z,34.73
2024-03-04T11:19:59.181Z,33.73
2024-03-04T11:22:27.164Z,31.40
2024-03-04T11:24:55.615Z,29.07
2024-03-04T11:27:24.822Z,32.27
2024-03-04T11:29:52.473Z,35.47
2024-03-04T11:32:27.393Z,32.23
2024-03-04T11:34:59.498Z,31.43
2024-03-04T11:37:27.167Z,31.10
2024-03-04T11:39:57.183Z,29.63
2024-03-04T11:42:35.644Z,28.27
2024-03-04T11:45:03.722Z,29.90
2024-03-04T11:47:32.277Z,28.70
2024-03-04T11:49:59.943Z,28.60
2024-03-04T11:52:27.991Z,28.63
2024-03-04T11:54:57.404Z,29.10
2024-03-04T11:57:26.438Z,29.67
2024-03-04T12:00:02.586Z,29.57
2024-03-04T12:02:30.577Z,33.10
2024-03-04T12:04:59.682Z,31.10
2024-03-04T12:07:27.868Z,28.47
2024-03-04T12:10:05.505Z,31.97
2024-03-04T12:12:41.436Z,31.10
2024-03-04T12:15:12.207Z,33.07
2024-03-04T12:17:39.940Z,36.20
2024-03-04T12:20:09.646Z,32.77
2024-03-04T12:22:38.800Z,33.93
2024-03-04T12:25:08.469Z,34.10
2024-03-04T12:27:37.794Z,32.50
2024-03-04T12:30:14.070Z,30.83
2024-03-04T12:32:42.445Z,29.87
2024-03-04T12:35:17.108Z,32.77
2024-03-04T12:37:45.562Z,31.73
2024-03-04T12:40:14.411Z,33.77
2024-03-04T12:42:42.047Z,36.40
2024-03-04T12:45:10.486Z,36.47
2024-03-04T12:47:39.562Z,31.50
2024-03-04T12:50:08.169Z,28.80
2024-03-04T12:52:36.910Z,32.17
2024-03-04T12:55:05.825Z,28.83
2024-03-04T12:57:33.394Z,30.33
2024-03-04T13:00:01.971Z,32.80
2024-03-04T13:02:29.705Z,30.70
2024-03-04T13:04:58.697Z,32.40
2024-03-04T13:07:26.321Z,32.97
2024-03-04T13:09:53.911Z,33.23
2024-03-04T13:12:21.463Z,31.30
2024-03-04T13:14:49.004Z,34.30
2024-03-04T13:17:18.885Z,33.00
2024-03-04T13:19:46.928Z,31.87
2024-03-04T13:22:15.905Z,29.53
2024-03-04T13:24:44.962Z,34.40
2024-03-04T13:27:13.054Z,33.37
2024-03-04T13:29:40.659Z,31.93
2024-03-04T13:32:08.435Z,34.13
2024-03-04T13:34:36.115Z,35.27
2024-03-04T13:37:04.219Z,38.93
2024-03-04T13:39:33.145Z,34.23
2024-03-04T13:42:00.817Z,34.20
2024-03-04T13:44:28.507Z,34.17
2024-03-04T13:46:56.140Z,33.87
2024-03-04T13:49:23.762Z,34.53
2024-03-04T13:51:51.406Z,37.20
2024-03-04T13:54:19.037Z,36.00
2024-03-04T13:56:48.707Z,31.73
2024-03-04T13:59:16.380Z,31.27
2024-03-04T14:01:44.135Z,30.23
2024-03-04T14:04:11.828Z,28.77
2024-03-04T14:06:39.497Z,25.43
2024-03-04T14:09:07.119Z,27.50
2024-03-04T14:11:34.761Z,29.23
2024-03-04T14:14:03.991Z,25.63
2024-03-04T14:16:31.628Z,28.97
2024-03-04T14:18:59.538Z,26.60
2024-03-04T14:21:27.137Z,22.10
2024-03-04T14:23:54.772Z,26.63
2024-03-04T14:26:22.415Z,27.43
2024-03-04T14:28:50.137Z,26.07
2024-03-04T14:31:19.780Z,21.80
2024-03-04T14:33:48.637Z,24.23
2024-03-04T14:36:16.218Z,18.97
2024-03-04T14:38:43.860Z,19.70
2024-03-04T14:41:16.029Z,17.17
2024-03-04T14:43:44.436Z,18.60
2024-03-04T14:46:12.187Z,18.60
2024-03-04T14:48:41.200Z,18.63
2024-03-04T14:51:09.138Z,17.20
2024-03-04T14:53:36.687Z,18.03
2024-03-04T14:56:04.662Z,16.70
2024-03-04T14:58:32.310Z,17.23
2024-03-04T15:00:59.976Z,16.20
2024-03-04T15:03:29.262Z,18.97
2024-03-04T15:05:58.415Z,17.93
2024-03-04T15:08:26.004Z,20.57
2024-03-04T15:10:54.439Z,22.27
2024-03-04T15:13:23.021Z,22.27
2024-03-04T15:15:50.826Z,20.07
2024-03-04T15:18:22.290Z,22.63
2024-03-04T15:20:54.309Z,20.23
2024-03-04T15:23:23.288Z,21.27
2024-03-04T15:25:51.423Z,22.33
2024-03-04T15:28:19.118Z,20.33
2024-03-04T15:30:48.099Z,20.80
2024-03-04T15:33:15.922Z,18.87
2024-03-04T15:35:43.489Z,20.80
2024-03-04T15:38:11.360Z,18.03
2024-03-04T15:40:43.035Z,17.33
2024-03-04T15:43:12.232Z,16.77
2024-03-04T15:45:40.368Z,22.43
2024-03-04T15:48:08.751Z,17.67
2024-03-04T15:50:36.850Z,15.60
2024-03-04T15:53:04.920Z,15.63
2024-03-04T15:55:32.516Z,18.17
2024-03-04T15:58:03.676Z,17.53
2024-03-04T16:00:31.266Z,18.43
2024-03-04T16:02:58.874Z,17.37
2024-03-04T16:05:26.548Z,16.67
2024-03-04T16:07:54.135Z,19.30
2024-03-04T16:10:21.835Z,16.93
2024-03-04T16:12:49.600Z,14.63
2024-03-04T16:15:18.944Z,18.47
2024-03-04T16:17:46.535Z,21.43
2024-03-04T16:20:19.660Z,19.73
2024-03-04T16:22:47.826Z,16.33
2024-03-04T16:25:15.623Z,24.30
2024-03-04T16:27:46.837Z,41.27
2024-03-04T16:30:14.580Z,50.40
2024-03-04T16:32:44.989Z,85.73
2024-03-04T16:35:12.658Z,70.13
2024-03-04T16:37:40.380Z,30.17
2024-03-04T16:40:13.398Z,50.57
2024-03-04T16:42:42.071Z,57.77
2024-03-04T16:45:11.090Z,41.77
2024-03-04T16:47:38.935Z,28.63
2024-03-04T16:50:10.763Z,21.43
2024-03-04T16:52:38.614Z,24.50
2024-03-04T16:55:07.845Z,23.83
2024-03-04T16:57:35.498Z,23.80
2024-03-04T17:00:03.274Z,21.10
2024-03-04T17:02:30.940Z,24.23
2024-03-04T17:04:58.639Z,22.37
2024-03-04T17:07:27.865Z,21.60
2024-03-04T17:09:55.489Z,21.40
2024-03-04T17:12:24.274Z,20.80
2024-03-04T17:14:52.073Z,20.13
2024-03-04T17:17:19.873Z,27.37
2024-03-04T17:19:47.563Z,19.70
2024-03-04T17:22:16.731Z,23.40
2024-03-04T17:24:54.556Z,21.50
2024-03-04T17:27:22.330Z,22.20
2024-03-04T17:29:49.953Z,25.03
2024-03-04T17:32:17.513Z,25.37
2024-03-04T17:34:45.350Z,22.90
2024-03-04T17:37:13.266Z,21.03
2024-03-04T17:39:40.981Z,23.70
2024-03-04T17:42:10.431Z,26.73
2024-03-04T17:44:38.056Z,22.60
2024-03-04T17:47:06.931Z,24.80
2024-03-04T17:49:34.589Z,22.47
2024-03-04T17:52:02.271Z,23.53
2024-03-04T17:54:29.828Z,24.93
2024-03-04T17:56:57.366Z,27.27
2024-03-04T17:59:26.234Z,23.37
2024-03-04T18:01:54.259Z,28.70
2024-03-04T18:04:22.092Z,22.97
2024-03-04T18:06:49.692Z,24.27
2024-03-04T18:09:17.284Z,26.57
2024-03-04T18:11:44.852Z,26.00
2024-03-04T18:14:12.467Z,27.10
2024-03-04T18:16:42.017Z,24.57
2024-03-04T18:19:09.622Z,24.80
2024-03-04T18:21:37.222Z,23.30
2024-03-04T18:24:05.544Z,29.47
2024-03-04T18:26:33.171Z,24.40
2024-03-04T18:29:00.878Z,25.67
2024-03-04T18:31:28.776Z,25.63
2024-03-04T18:33:57.730Z,27.53
2024-03-04T18:36:25.325Z,28.13
2024-03-04T18:38:52.939Z,28.90
2024-03-04T18:41:22.015Z,28.23
2024-03-04T18:43:49.849Z,25.33
2024-03-04T18:46:17.634Z,28.10
2024-03-04T18:48:45.450Z,32.27
2024-03-04T18:51:14.964Z,28.70
2024-03-04T18:53:42.584Z,29.47
2024-03-04T18:56:13.540Z,34.30
2024-03-04T18:58:41.942Z,28.70
2024-03-04T19:01:10.062Z,29.30
2024-03-04T19:03:37.921Z,28.33
2024-03-04T19:06:06.348Z,27.00
2024-03-04T19:08:35.317Z,26.30
2024-03-04T19:11:08.779Z,28.37
2024-03-04T19:13:42.851Z,31.23
2024-03-04T19:16:10.601Z,32.67
2024-03-04T19:18:39.471Z,29.77
2024-03-04T19:21:08.430Z,28.93
2024-03-04T19:23:38.410Z,35.03
2024-03-04T19:26:06.274Z,34.50
2024-03-04T19:28:34.512Z,32.87
2024-03-04T19:31:02.501Z,30.30
2024-03-04T19:33:31.350Z,31.03
2024-03-04T19:35:59.385Z,35.40
2024-03-04T19:38:27.034Z,34.47
2024-03-04T19:40:56.066Z,38.70
2024-03-04T19:43:24.008Z,34.50
2024-03-04T19:45:50.760Z,33.80
2024-03-04T19:48:18.352Z,37.07
2024-03-04T19:50:45.976Z,35.57
2024-03-04T19:53:13.612Z,33.10
2024-03-04T19:55:41.202Z,31.17
2024-03-04T19:58:10.450Z,38.03
2024-03-04T20:00:38.138Z,34.13
2024-03-04T20:03:06.312Z,33.43
2024-03-04T20:05:34.944Z,38.47
2024-03-04T20:08:03.408Z,38.83
2024-03-04T20:10:31.076Z,34.47
2024-03-04T20:12:58.663Z,39.20
2024-03-04T20:15:27.576Z,38.07
2024-03-04T20:17:55.195Z,38.07
2024-03-04T20:20:22.967Z,36.30
2024-03-04T20:22:50.621Z,36.97
2024-03-04T20:25:18.312Z,41.17
2024-03-04T20:27:45.879Z,38.57
2024-03-04T20:30:13.606Z,38.63
2024-03-04T20:32:42.546Z,40.90
2024-03-04T20:35:11.663Z,38.90
2024-03-04T20:37:39.292Z,35.13
2024-03-04T20:40:08.218Z,37.30
2024-03-04T20:42:36.043Z,36.83
2024-03-04T20:45:04.499Z,39.77
2024-03-04T20:47:32.165Z,35.97
2024-03-04T20:50:01.518Z,41.03
2024-03-04T20:52:29.294Z,38.57
2024-03-04T20:54:58.063Z,38.57
2024-03-04T20:57:27.213Z,40.17
2024-03-04T20:59:55.176Z,41.63
2024-03-04T21:02:22.855Z,38.77
2024-03-04T21:04:50.496Z,37.17
2024-03-04T21:07:20.718Z,36.57
2024-03-04T21:09:48.430Z,33.93
2024-03-04T21:12:16.909Z,38.43
2024-03-04T21:14:44.625Z,35.43
2024-03-04T21:17:12.205Z,33.87
2024-03-04T21:19:40.008Z,34.03
2024-03-04T21:22:07.667Z,38.40
2024-03-04T21:24:36.704Z,35.00
2024-03-04T21:27:04.742Z,41.23
2024-03-04T21:29:32.289Z,37.23
2024-03-04T21:32:00.656Z,36.47
2024-03-04T21:34:28.246Z,35.33
2024-03-04T21:36:55.912Z,37.73
2024-03-04T21:39:23.496Z,36.67
2024-03-04T21:41:52.414Z,40.27
2024-03-04T21:44:20.050Z,36.63
2024-03-04T21:46:47.684Z,35.53
2024-03-04T21:49:16.773Z,33.13
2024-03-04T21:51:44.858Z,34.53
2024-03-04T21:54:13.020Z,35.60
2024-03-04T21:56:40.699Z,35.57
2024-03-04T21:59:10.044Z,35.10
2024-03-04T22:01:37.779Z,33.10
2024-03-04T22:04:06.102Z,36.30
2024-03-04T22:06:33.916Z,36.77
2024-03-04T22:09:01.517Z,35.07
2024-03-04T22:11:29.200Z,39.50
2024-03-04T22:13:57.054Z,38.03
2024-03-04T22:16:27.285Z,33.77
2024-03-04T22:18:55.187Z,35.70
2024-03-04T22:21:22.784Z,42.20
2024-03-04T22:23:50.420Z,40.30
2024-03-04T22:26:18.029Z,40.63
2024-03-04T22:28:45.683Z,37.20
2024-03-04T22:31:13.424Z,34.20
2024-03-04T22:33:42.386Z,39.10
2024-03-04T22:36:10.057Z,37.57
2024-03-04T22:38:38.183Z,40.67
2024-03-04T22:41:05.830Z,47.43
2024-03-04T22:43:33.649Z,43.27
2024-03-04T22:46:01.264Z,44.43
2024-03-04T22:48:28.861Z,40.93
2024-03-04T22:50:57.890Z,49.70
2024-03-04T22:53:25.503Z,44.30
2024-03-04T22:55:53.594Z,46.47
2024-03-04T22:58:21.483Z,43.33
2024-03-04T23:00:57.349Z,51.80
2024-03-04T23:03:26.837Z,43.13
2024-03-04T23:05:54.491Z,50.13
2024-03-04T23:08:24.380Z,43.20
2024-03-04T23:10:52.109Z,42.57
2024-03-04T23:13:20.016Z,48.30
2024-03-04T23:15:47.831Z,49.70
2024-03-04T23:18:16.043Z,42.47
2024-03-04T23:20:44.772Z,53.80
2024-03-04T23:23:12.697Z,45.03
2024-03-04T23:25:41.749Z,45.03
2024-03-04T23:28:09.551Z,40.07
2024-03-04T23:30:37.272Z,37.73
2024-03-04T23:33:06.464Z,37.70
2024-03-04T23:35:34.165Z,38.73
2024-03-04T23:38:02.429Z,37.83
2024-03-04T23:40:30.184Z,41.93
2024-03-04T23:42:59.185Z,38.10
2024-03-04T23:45:26.994Z,38.27
2024-03-04T23:47:55.153Z,36.20
2024-03-04T23:50:23.092Z,34.10
2024-03-04T23:52:50.798Z,34.10
2024-03-04T23:55:18.579Z,36.80
2024-03-04T23:57:46.216Z,36.40
